Time;durP1;ratioP1;P1;durP2;ratioP2;P2;SDS_P1;SDS_P2;PMS_P1;PMS_P2;Temp;Humidity;BMP_temperature;BMP_pressure;BME280_temperature;BME280_humidity;BME280_pressure;Samples;Min_cycle;Max_cycle;Signal;HPM_P1;HPM_P2
2022/11/07 00:00:01;;;;;;;8.10;4.27;;;9.60;23.00;;;;;;5058029;28;20703;-82
2022/11/07 00:02:27;;;;;;;6.90;4.37;;;9.50;42.10;;;;;;5059596;28;20693;-82
2022/11/07 00:04:54;;;;;;;6.13;4.20;;;9.60;20.10;;;;;;5070894;28;20206;-83
2022/11/07 00:07:21;;;;;;;6.17;3.97;;;9.50;7.90;;;;;;5078604;28;20202;-82
2022/11/07 00:09:48;;;;;;;5.07;3.83;;;9.50;95.40;;;;;;5077585;28;20305;-82
2022/11/07 00:12:14;;;;;;;6.07;4.10;;;9.40;99.90;;;;;;5078416;28;20208;-82
2022/11/07 00:14:41;;;;;;;6.27;4.27;;;9.50;99.90;;;;;;5066391;28;20225;-82
2022/11/07 00:17:09;;;;;;;5.37;3.90;;;9.50;99.90;;;;;;5058173;28;20227;-83
2022/11/07 00:19:36;;;;;;;8.07;4.53;;;9.60;93.60;;;;;;5067324;28;20218;-83
2022/11/07 00:22:03;;;;;;;7.87;4.60;;;9.60;46.70;;;;;;5077810;28;20220;-82
2022/11/07 00:24:30;;;;;;;5.83;4.13;;;9.50;99.90;;;;;;5075762;28;20282;-82
2022/11/07 00:26:57;;;;;;;5.40;3.53;;;9.60;99.90;;;;;;5077193;28;20207;-82
2022/11/07 00:29:24;;;;;;;4.60;3.70;;;9.50;99.90;;;;;;5077721;28;20709;-83
2022/11/07 00:31:51;;;;;;;5.67;4.17;;;9.60;99.90;;;;;;5067370;28;20666;-82
2022/11/07 00:34:19;;;;;;;6.07;4.47;;;9.70;99.90;;;;;;5057324;28;20201;-83
2022/11/07 00:36:45;;;;;;;5.80;4.30;;;9.80;93.20;;;;;;5057490;28;20593;-83
2022/11/07 00:39:12;;;;;;;6.53;3.57;;;10.10;1.00;;;;;;5069240;28;20229;-82
2022/11/07 00:41:39;;;;;;;5.00;3.60;;;9.90;1.00;;;;;;5060124;28;20199;-83
2022/11/07 00:44:06;;;;;;;5.97;3.10;;;10.10;1.00;;;;;;5063542;28;20656;-82
2022/11/07 00:46:33;;;;;;;4.87;3.00;;;10.10;1.00;;;;;;5069256;28;20202;-83
2022/11/07 00:49:00;;;;;;;4.80;3.30;;;10.10;1.00;;;;;;5076560;28;20236;-83
2022/11/07 00:51:29;;;;;;;6.30;3.90;;;10.20;1.00;;;;;;5076229;28;20227;-82
2022/11/07 00:53:55;;;;;;;6.57;3.53;;;10.20;1.00;;;;;;5058794;28;20207;-83
2022/11/07 00:56:24;;;;;;;5.70;3.17;;;10.20;1.00;;;;;;5057517;28;20238;-82
2022/11/07 00:58:54;;;;;;;5.37;3.63;;;10.20;1.00;;;;;;5073914;28;20210;-82
2022/11/07 01:01:23;;;;;;;6.70;3.60;;;10.20;1.00;;;;;;5076521;28;20236;-82
2022/11/07 01:06:38;;;;;;;4.53;2.93;;;10.40;1.00;;;;;;5077807;28;20205;-83
2022/11/07 01:09:05;;;;;;;5.37;3.47;;;10.40;1.00;;;;;;5057443;28;20203;-81
2022/11/07 01:11:32;;;;;;;5.43;3.03;;;10.40;1.00;;;;;;5070836;28;20218;-81
2022/11/07 01:14:00;;;;;;;4.73;2.93;;;10.40;1.00;;;;;;5076561;28;20214;-82
2022/11/07 01:16:29;;;;;;;5.47;3.20;;;10.50;1.00;;;;;;5076481;28;20202;-82
2022/11/07 01:18:56;;;;;;;4.10;2.83;;;10.40;1.00;;;;;;5077343;28;20237;-83
2022/11/07 01:21:23;;;;;;;5.37;3.10;;;10.40;1.00;;;;;;5077816;28;20653;-82
2022/11/07 01:23:51;;;;;;;7.23;3.10;;;10.50;1.00;;;;;;5061381;28;20198;-82
2022/11/07 01:26:18;;;;;;;4.43;3.20;;;10.50;1.00;;;;;;5076839;28;20186;-82
2022/11/07 01:28:45;;;;;;;5.37;3.07;;;10.50;1.00;;;;;;5076821;28;20335;-83
2022/11/07 01:31:14;;;;;;;10.60;3.50;;;10.50;1.00;;;;;;5071839;28;20222;-83
2022/11/07 01:33:41;;;;;;;6.23;3.17;;;10.60;1.00;;;;;;5077206;28;20209;-82
2022/11/07 01:36:11;;;;;;;5.90;3.00;;;10.60;1.00;;;;;;5078651;28;20207;-82
2022/11/07 01:38:39;;;;;;;3.33;2.77;;;10.60;1.00;;;;;;5076511;28;20214;-83
2022/11/07 01:41:24;;;;;;;4.10;2.63;;;10.60;1.00;;;;;;5065196;28;20228;-83
2022/11/07 01:44:00;;;;;;;4.40;2.80;;;10.60;1.00;;;;;;5066426;28;20270;-83
2022/11/07 01:46:30;;;;;;;4.93;3.10;;;10.70;1.00;;;;;;5070382;28;20202;-83
2022/11/07 01:49:05;;;;;;;4.70;3.40;;;10.60;1.00;;;;;;5077278;28;20676;-83
2022/11/07 01:51:35;;;;;;;7.33;3.10;;;10.70;1.00;;;;;;5075250;28;20252;-83
2022/11/07 01:54:03;;;;;;;3.30;2.60;;;10.70;1.00;;;;;;5076945;28;20202;-82
2022/11/07 01:56:35;;;;;;;5.37;3.10;;;10.70;1.00;;;;;;5075930;28;20204;-82
2022/11/07 01:59:03;;;;;;;6.67;2.70;;;10.60;1.00;;;;;;5057616;28;20271;-83
2022/11/07 02:01:29;;;;;;;3.03;2.63;;;10.70;1.00;;;;;;5076182;28;20606;-83
2022/11/07 02:03:57;;;;;;;4.30;2.90;;;10.60;1.00;;;;;;5060609;28;20210;-82
2022/11/07 02:06:29;;;;;;;2.77;2.57;;;10.70;1.00;;;;;;5070432;28;20306;-83
2022/11/07 02:08:56;;;;;;;9.37;3.23;;;10.70;1.00;;;;;;5072519;28;20222;-83
2022/11/07 02:11:24;;;;;;;4.20;2.70;;;10.70;1.00;;;;;;5075986;28;20230;-82
2022/11/07 02:13:52;;;;;;;7.23;2.60;;;10.70;1.00;;;;;;5058820;28;20221;-82
2022/11/07 02:16:19;;;;;;;5.30;2.73;;;10.70;1.00;;;;;;5055590;28;20681;-82
2022/11/07 02:18:46;;;;;;;4.23;2.60;;;10.70;1.00;;;;;;5071960;28;20741;-82
2022/11/07 02:21:33;;;;;;;3.33;2.63;;;10.70;1.00;;;;;;5073271;28;20301;-82
2022/11/07 02:24:15;;;;;;;3.97;2.80;;;10.60;1.00;;;;;;5056106;28;20618;-82
2022/11/07 02:26:43;;;;;;;5.87;2.97;;;10.70;1.00;;;;;;5059402;28;20203;-83
2022/11/07 02:29:11;;;;;;;5.67;2.70;;;10.70;1.00;;;;;;5075132;28;20202;-83
2022/11/07 02:31:38;;;;;;;2.83;2.30;;;10.70;1.00;;;;;;5074330;28;20214;-82
2022/11/07 02:34:05;;;;;;;2.70;2.50;;;10.70;1.00;;;;;;5071682;28;20573;-83
2022/11/07 02:36:32;;;;;;;5.17;2.80;;;10.70;1.00;;;;;;5074482;28;20289;-83
2022/11/07 02:39:00;;;;;;;4.63;2.63;;;10.70;1.00;;;;;;5072706;28;20313;-82
2022/11/07 02:41:31;;;;;;;5.67;2.83;;;10.70;1.00;;;;;;5075435;28;20218;-83
2022/11/07 02:44:02;;;;;;;4.23;2.37;;;10.70;1.00;;;;;;5075926;28;20619;-83
2022/11/07 02:46:31;;;;;;;4.57;2.40;;;10.80;1.00;;;;;;5074397;28;20212;-83
2022/11/07 02:48:59;;;;;;;4.27;2.43;;;10.70;1.00;;;;;;5073763;28;20233;-83
2022/11/07 02:51:26;;;;;;;2.57;2.27;;;10.70;1.00;;;;;;5054810;28;20309;-83
2022/11/07 02:53:54;;;;;;;2.80;2.30;;;10.70;1.00;;;;;;5066244;28;20194;-82
2022/11/07 02:56:21;;;;;;;3.37;2.20;;;10.70;1.00;;;;;;5061155;28;20560;-83
2022/11/07 02:58:51;;;;;;;3.47;2.37;;;10.70;1.00;;;;;;5075782;28;20224;-83
2022/11/07 03:01:18;;;;;;;5.33;2.50;;;10.70;1.00;;;;;;5076361;28;20376;-82
2022/11/07 03:03:48;;;;;;;4.13;2.37;;;10.70;1.00;;;;;;5077436;28;20194;-82
2022/11/07 03:06:16;;;;;;;2.77;2.13;;;10.70;1.00;;;;;;5077310;28;20206;-83
2022/11/07 03:08:43;;;;;;;4.40;2.30;;;10.70;1.00;;;;;;5061116;28;20449;-83
2022/11/07 03:11:11;;;;;;;5.23;2.50;;;10.70;1.00;;;;;;5066203;28;20893;-82
2022/11/07 03:13:38;;;;;;;4.10;2.03;;;10.80;1.00;;;;;;5074771;28;20202;-83
2022/11/07 03:16:08;;;;;;;4.23;2.33;;;10.70;1.00;;;;;;5062956;28;20195;-83
2022/11/07 03:18:35;;;;;;;3.83;2.50;;;10.70;1.00;;;;;;5058954;28;20245;-82
2022/11/07 03:21:02;;;;;;;5.47;2.50;;;10.70;16.40;;;;;;5066860;28;20218;-82
2022/11/07 03:23:29;;;;;;;5.67;2.80;;;10.70;2.80;;;;;;5075529;28;20264;-83
2022/11/07 03:25:56;;;;;;;4.97;2.43;;;10.80;1.00;;;;;;5082397;28;20198;-83
2022/11/07 03:28:23;;;;;;;4.80;2.60;;;10.90;1.00;;;;;;5080646;28;20208;-82
2022/11/07 03:30:50;;;;;;;12.40;7.20;;;10.80;37.90;;;;;;5063071;28;20652;-83
2022/11/07 03:33:18;;;;;;;5.67;2.30;;;10.80;1.00;;;;;;5063957;28;20680;-83
2022/11/07 03:35:45;;;;;;;3.80;2.10;;;10.80;20.10;;;;;;5080696;28;20559;-83
2022/11/07 03:38:12;;;;;;;4.17;2.30;;;10.80;1.00;;;;;;5079677;28;20228;-83
2022/11/07 03:40:39;;;;;;;4.30;2.33;;;10.80;4.30;;;;;;5063960;28;20218;-83
2022/11/07 03:43:06;;;;;;;4.10;2.23;;;10.90;92.60;;;;;;5059540;28;20297;-83
2022/11/07 03:45:32;;;;;;;2.67;2.10;;;10.90;25.90;;;;;;5060848;28;20198;-83
2022/11/07 03:47:59;;;;;;;3.93;2.10;;;10.80;13.00;;;;;;5061893;28;20195;-82
2022/11/07 03:50:27;;;;;;;3.47;2.40;;;10.90;19.50;;;;;;5064637;28;20226;-85
2022/11/07 03:52:54;;;;;;;3.60;2.00;;;10.90;20.40;;;;;;5060374;28;20294;-83
2022/11/07 03:55:21;;;;;;;4.33;2.03;;;10.90;1.00;;;;;;5059000;28;20210;-83
2022/11/07 03:57:48;;;;;;;4.00;2.00;;;10.90;1.00;;;;;;5059712;28;20661;-83
2022/11/07 04:00:16;;;;;;;3.50;1.80;;;10.90;1.00;;;;;;5070332;28;20218;-82
2022/11/07 04:02:43;;;;;;;2.40;1.60;;;10.90;26.20;;;;;;5064059;28;20285;-83
2022/11/07 04:05:13;;;;;;;4.93;1.83;;;10.90;1.00;;;;;;5079518;28;20198;-83
2022/11/07 04:07:41;;;;;;;2.97;1.90;;;10.80;1.00;;;;;;5075097;28;20204;-82
2022/11/07 04:10:10;;;;;;;3.47;1.90;;;10.80;1.00;;;;;;5074673;28;20224;-83
2022/11/07 04:18:06;;;;;;;2.73;2.00;;;10.80;1.00;;;;;;5071872;28;20221;-81
2022/11/07 04:20:33;;;;;;;4.40;1.90;;;10.80;1.00;;;;;;5066700;28;20294;-82
2022/11/07 04:23:01;;;;;;;3.40;1.60;;;10.80;12.80;;;;;;5066428;28;20207;-83
2022/11/07 04:28:15;;;;;;;10.60;5.47;;;10.80;18.20;;;;;;5073410;28;20179;-83
2022/11/07 04:30:42;;;;;;;6.17;2.17;;;10.80;59.20;;;;;;5085139;28;20277;-83
2022/11/07 04:33:09;;;;;;;3.50;1.70;;;10.90;49.30;;;;;;5091847;28;20237;-83
2022/11/07 04:35:35;;;;;;;3.27;1.90;;;10.90;22.10;;;;;;5090714;28;20242;-83
2022/11/07 04:38:04;;;;;;;2.30;1.63;;;10.90;1.00;;;;;;5089826;28;20229;-82
2022/11/07 04:40:31;;;;;;;4.20;1.77;;;11.00;1.00;;;;;;5092085;28;20222;-84
2022/11/07 04:42:58;;;;;;;3.23;1.77;;;11.00;1.00;;;;;;5089452;28;20274;-83
2022/11/07 04:45:25;;;;;;;2.50;1.50;;;11.00;1.00;;;;;;5091155;28;20232;-84
2022/11/07 04:47:53;;;;;;;2.90;1.50;;;11.00;1.00;;;;;;5090343;28;20200;-84
2022/11/07 04:50:20;;;;;;;4.93;1.77;;;11.00;1.00;;;;;;5091032;28;20285;-84
2022/11/07 04:52:47;;;;;;;2.33;1.93;;;11.00;1.00;;;;;;5091368;28;20222;-84
2022/11/07 04:55:21;;;;;;;2.30;1.70;;;11.00;1.00;;;;;;5091044;28;20210;-84
2022/11/07 04:57:48;;;;;;;3.23;1.70;;;11.00;1.00;;;;;;5091538;28;20210;-83
2022/11/07 05:00:16;;;;;;;2.83;1.63;;;11.10;1.00;;;;;;5090717;28;20222;-83
2022/11/07 05:02:43;;;;;;;2.40;1.60;;;11.20;1.00;;;;;;5092014;28;20234;-83
2022/11/07 05:05:11;;;;;;;2.80;1.40;;;11.10;1.00;;;;;;5092828;28;20233;-83
2022/11/07 05:07:38;;;;;;;3.83;1.43;;;11.20;1.00;;;;;;5089960;28;20202;-83
2022/11/07 05:10:08;;;;;;;4.47;1.80;;;11.20;1.00;;;;;;5090406;28;20250;-83
2022/11/07 05:12:36;;;;;;;3.70;1.80;;;11.20;1.00;;;;;;5090256;28;20229;-83
2022/11/07 05:15:04;;;;;;;7.47;1.50;;;11.20;1.00;;;;;;5090633;28;20233;-83
2022/11/07 05:17:30;;;;;;;1.63;1.43;;;11.20;1.00;;;;;;5090249;28;20270;-84
2022/11/07 05:19:57;;;;;;;4.10;1.70;;;11.10;1.00;;;;;;5088322;28;20232;-83
2022/11/07 05:25:10;;;;;;;2.83;1.43;;;11.00;1.00;;;;;;5092232;28;20189;-83
2022/11/07 05:27:38;;;;;;;3.90;1.67;;;11.00;1.00;;;;;;5089185;28;20198;-83
2022/11/07 05:30:06;;;;;;;3.90;1.63;;;10.90;1.00;;;;;;5089633;28;20230;-83
2022/11/07 05:32:36;;;;;;;1.63;1.53;;;10.90;1.00;;;;;;5090359;28;20230;-83
2022/11/07 05:35:03;;;;;;;3.30;1.60;;;10.90;1.00;;;;;;5089225;28;20273;-83
2022/11/07 05:37:30;;;;;;;2.27;1.23;;;10.80;19.20;;;;;;5090269;28;20286;-83
2022/11/07 05:39:57;;;;;;;5.03;1.60;;;10.90;1.00;;;;;;5070272;28;20238;-83
2022/11/07 05:42:24;;;;;;;5.53;1.67;;;10.80;1.00;;;;;;5080781;28;20211;-84
2022/11/07 05:44:52;;;;;;;3.47;1.70;;;10.80;99.90;;;;;;5075072;28;20258;-83
2022/11/07 05:47:19;;;;;;;3.67;1.60;;;10.80;99.90;;;;;;5089535;28;20217;-84
2022/11/07 05:49:46;;;;;;;5.90;1.60;;;10.80;99.90;;;;;;5087565;28;20619;-84
2022/11/07 05:52:13;;;;;;;2.33;1.57;;;10.80;99.90;;;;;;5090729;28;20261;-84
2022/11/07 05:54:40;;;;;;;2.37;1.30;;;10.80;99.90;;;;;;5090551;28;20268;-83
2022/11/07 05:57:07;;;;;;;2.27;1.70;;;10.90;99.90;;;;;;5089350;28;20270;-83
2022/11/07 05:59:33;;;;;;;2.93;1.50;;;10.90;84.80;;;;;;5088121;28;20257;-84
2022/11/07 06:02:02;;;;;;;5.07;1.80;;;11.00;1.00;;;;;;5091510;28;20213;-84
2022/11/07 06:04:28;;;;;;;1.80;1.50;;;10.90;50.10;;;;;;5088931;28;20244;-83
2022/11/07 06:06:55;;;;;;;3.23;1.50;;;10.80;92.30;;;;;;5091238;28;20213;-84
2022/11/07 06:09:22;;;;;;;3.90;1.57;;;10.80;28.70;;;;;;5088891;28;20190;-84
2022/11/07 06:11:49;;;;;;;2.10;1.43;;;10.90;1.00;;;;;;5069550;28;20214;-84
2022/11/07 06:14:16;;;;;;;5.03;1.60;;;10.80;21.10;;;;;;5082759;28;20222;-83
2022/11/07 06:16:43;;;;;;;7.63;1.87;;;10.80;1.00;;;;;;5090518;28;20206;-83
2022/11/07 06:19:11;;;;;;;4.43;1.80;;;10.70;80.70;;;;;;5078637;28;20299;-83
2022/11/07 06:21:38;;;;;;;3.97;1.30;;;10.60;99.90;;;;;;5071168;28;20294;-83
2022/11/07 06:24:06;;;;;;;3.40;1.60;;;10.70;99.90;;;;;;5069301;28;20199;-84
2022/11/07 06:26:34;;;;;;;2.57;1.60;;;10.70;99.90;;;;;;5069820;28;20203;-84
2022/11/07 06:29:01;;;;;;;2.17;1.77;;;10.60;99.90;;;;;;5071904;28;20217;-83
2022/11/07 06:31:29;;;;;;;2.10;1.90;;;10.60;99.90;;;;;;5067522;28;20234;-82
2022/11/07 06:33:56;;;;;;;2.33;1.43;;;10.60;99.90;;;;;;5069988;28;20213;-84
2022/11/07 06:36:24;;;;;;;4.53;2.00;;;10.60;99.90;;;;;;5066335;28;20214;-83
2022/11/07 06:38:52;;;;;;;2.80;1.60;;;10.60;99.90;;;;;;5074939;28;20230;-84
2022/11/07 06:41:19;;;;;;;2.07;1.47;;;10.80;99.90;;;;;;5080067;28;20218;-83
2022/11/07 06:43:46;;;;;;;3.60;1.40;;;10.80;99.90;;;;;;5088395;28;20199;-83
2022/11/07 06:46:16;;;;;;;5.73;2.30;;;10.70;99.90;;;;;;5085775;28;20206;-84
2022/11/07 06:48:43;;;;;;;4.57;1.70;;;10.90;99.90;;;;;;5069413;28;20203;-84
2022/11/07 06:51:11;;;;;;;3.97;1.80;;;10.90;55.00;;;;;;5070011;28;20214;-84
2022/11/07 06:53:39;;;;;;;6.93;2.10;;;10.90;42.80;;;;;;5070039;28;20219;-84
2022/11/07 06:56:10;;;;;;;2.33;1.43;;;10.80;69.60;;;;;;5069001;28;20256;-83
2022/11/07 06:58:37;;;;;;;5.47;2.10;;;10.80;99.90;;;;;;5072123;28;20286;-84
2022/11/07 07:01:07;;;;;;;3.80;1.60;;;10.80;99.90;;;;;;5088502;28;20217;-83
2022/11/07 07:03:34;;;;;;;3.00;1.63;;;10.70;99.90;;;;;;5086988;28;20206;-84
2022/11/07 07:06:02;;;;;;;3.53;1.90;;;10.70;99.90;;;;;;5090204;28;20222;-83
2022/11/07 07:08:29;;;;;;;7.07;2.17;;;10.70;99.90;;;;;;5088310;28;20208;-84
2022/11/07 07:11:02;;;;;;;2.77;1.50;;;10.80;99.90;;;;;;5090011;28;20252;-84
2022/11/07 07:13:30;;;;;;;4.67;2.23;;;10.80;99.90;;;;;;5089007;28;20258;-84
2022/11/07 07:15:58;;;;;;;3.93;1.50;;;10.80;99.90;;;;;;5088191;28;20206;-83
2022/11/07 07:18:26;;;;;;;3.57;1.77;;;10.90;99.90;;;;;;5089930;28;20202;-84
2022/11/07 07:20:55;;;;;;;2.93;1.80;;;10.90;99.90;;;;;;5089366;28;20289;-84
2022/11/07 07:23:22;;;;;;;5.07;1.73;;;10.90;99.90;;;;;;5088711;28;20209;-83
2022/11/07 07:25:49;;;;;;;3.17;1.63;;;10.90;99.90;;;;;;5087928;28;20297;-84
2022/11/07 07:28:17;;;;;;;3.80;1.87;;;10.80;99.90;;;;;;5088975;28;20199;-84
2022/11/07 07:30:44;;;;;;;3.50;1.77;;;11.00;99.90;;;;;;5075468;28;20310;-83
2022/11/07 07:33:11;;;;;;;3.20;1.80;;;11.10;99.90;;;;;;5068988;28;20262;-84
2022/11/07 07:35:37;;;;;;;4.43;1.60;;;11.20;90.40;;;;;;5069777;28;20701;-84
2022/11/07 07:38:04;;;;;;;2.37;1.57;;;11.20;45.50;;;;;;5068467;28;20203;-84
2022/11/07 07:40:31;;;;;;;4.77;1.53;;;11.20;74.60;;;;;;5069551;28;20714;-85
2022/11/07 07:42:58;;;;;;;5.63;1.90;;;11.30;99.90;;;;;;5070561;28;20241;-82
2022/11/07 07:45:26;;;;;;;3.33;1.47;;;11.40;46.60;;;;;;5078685;28;20285;-84
2022/11/07 07:47:53;;;;;;;6.90;1.50;;;11.50;1.00;;;;;;5093136;28;20206;-84
2022/11/07 07:50:20;;;;;;;4.00;1.93;;;11.60;1.00;;;;;;5091504;28;20218;-84
2022/11/07 07:52:47;;;;;;;4.67;1.67;;;11.60;1.00;;;;;;5093213;28;20202;-84
2022/11/07 07:55:13;;;;;;;3.07;1.40;;;11.60;1.00;;;;;;5092389;28;20237;-84
2022/11/07 07:57:41;;;;;;;3.00;2.27;;;11.70;1.00;;;;;;5090082;28;20210;-84
2022/11/07 08:00:10;;;;;;;4.07;1.93;;;11.70;1.00;;;;;;5091501;28;20265;-84
2022/11/07 08:02:42;;;;;;;4.80;1.70;;;11.60;1.00;;;;;;5092019;28;20221;-84
2022/11/07 08:05:09;;;;;;;2.53;1.60;;;11.70;1.00;;;;;;5093290;28;20193;-84
2022/11/07 08:07:36;;;;;;;3.80;1.80;;;11.80;1.00;;;;;;5090615;28;20221;-84
2022/11/07 08:10:03;;;;;;;3.87;1.70;;;11.70;1.00;;;;;;5092538;28;20231;-84
2022/11/07 08:12:30;;;;;;;2.40;1.67;;;11.70;1.00;;;;;;5091635;28;20574;-84
2022/11/07 08:14:57;;;;;;;2.30;1.47;;;11.70;1.00;;;;;;5092563;28;20290;-84
2022/11/07 08:17:23;;;;;;;2.63;1.60;;;11.80;1.00;;;;;;5090980;28;20210;-84
2022/11/07 08:19:52;;;;;;;2.50;1.70;;;11.80;1.00;;;;;;5092005;28;20742;-84
2022/11/07 08:22:18;;;;;;;5.03;2.27;;;11.80;1.00;;;;;;5092473;28;20233;-84
2022/11/07 08:24:45;;;;;;;5.13;1.80;;;11.90;1.00;;;;;;5092094;28;20211;-84
2022/11/07 08:27:12;;;;;;;3.63;1.53;;;11.90;1.00;;;;;;5092161;28;20265;-84
2022/11/07 08:29:41;;;;;;;4.37;2.17;;;12.00;1.00;;;;;;5091083;28;20222;-84
2022/11/07 08:32:08;;;;;;;14.07;2.43;;;12.00;1.00;;;;;;5091655;28;20199;-85
2022/11/07 08:34:35;;;;;;;2.27;1.53;;;12.00;1.00;;;;;;5090555;28;20218;-84
2022/11/07 08:37:03;;;;;;;2.60;1.73;;;12.00;1.00;;;;;;5090813;28;20267;-85
2022/11/07 08:39:30;;;;;;;3.47;1.43;;;12.20;1.00;;;;;;5090434;28;20224;-84
2022/11/07 08:41:56;;;;;;;5.00;1.53;;;12.20;1.00;;;;;;5092020;28;20209;-84
2022/11/07 08:44:23;;;;;;;4.23;1.60;;;12.30;1.00;;;;;;5091963;28;20198;-85
2022/11/07 08:46:50;;;;;;;5.03;1.93;;;12.40;1.00;;;;;;5090597;28;20204;-84
2022/11/07 08:49:17;;;;;;;7.63;1.87;;;12.40;1.00;;;;;;5091319;28;20194;-84
2022/11/07 08:51:44;;;;;;;6.70;2.20;;;12.50;1.00;;;;;;5089962;28;20209;-85
2022/11/07 08:54:12;;;;;;;3.93;1.30;;;12.50;99.90;;;;;;5091039;28;20206;-84
2022/11/07 08:56:39;;;;;;;4.83;1.60;;;12.60;99.90;;;;;;5092402;28;20265;-84
2022/11/07 08:59:08;;;;;;;3.50;1.50;;;12.60;24.10;;;;;;5090492;28;20293;-84
2022/11/07 09:01:35;;;;;;;4.37;1.97;;;12.60;72.60;;;;;;5091173;28;20313;-84
2022/11/07 09:04:05;;;;;;;6.57;2.10;;;12.50;99.90;;;;;;5092666;28;20341;-84
2022/11/07 09:06:32;;;;;;;7.87;2.30;;;12.50;99.90;;;;;;5090280;28;20266;-84
2022/11/07 09:08:59;;;;;;;5.07;2.00;;;12.50;99.90;;;;;;5090321;28;20232;-84
2022/11/07 09:11:28;;;;;;;5.50;1.60;;;12.50;1.00;;;;;;5091042;28;20269;-84
2022/11/07 09:13:56;;;;;;;3.03;1.60;;;12.70;99.90;;;;;;5090837;28;20214;-82
2022/11/07 09:16:24;;;;;;;3.60;1.80;;;12.90;99.90;;;;;;5090649;28;20213;-82
2022/11/07 09:18:52;;;;;;;5.07;1.80;;;13.00;1.00;;;;;;5089948;28;20270;-83
2022/11/07 09:21:19;;;;;;;4.77;1.70;;;13.10;1.00;;;;;;5090926;28;20222;-83
2022/11/07 09:23:46;;;;;;;4.60;2.27;;;13.10;99.90;;;;;;5089800;28;20278;-83
2022/11/07 09:26:13;;;;;;;4.87;1.57;;;13.20;1.00;;;;;;5089845;28;20220;-83
2022/11/07 09:28:41;;;;;;;3.43;1.60;;;13.10;1.00;;;;;;5089704;28;20257;-83
2022/11/07 09:31:08;;;;;;;3.23;1.47;;;13.20;1.00;;;;;;5089720;28;20285;-83
2022/11/07 09:33:34;;;;;;;5.33;1.60;;;13.20;99.90;;;;;;5089266;28;20237;-83
2022/11/07 09:36:03;;;;;;;3.97;1.83;;;13.20;1.00;;;;;;5089762;28;20266;-83
2022/11/07 09:38:30;;;;;;;7.37;1.60;;;13.30;99.90;;;;;;5089175;28;20230;-82
2022/11/07 09:41:04;;;;;;;7.33;1.90;;;13.20;1.00;;;;;;5090550;28;20246;-83
2022/11/07 09:43:48;;;;;;;3.57;1.60;;;13.30;1.00;;;;;;5090404;28;20209;-83
2022/11/07 09:46:27;;;;;;;3.67;1.20;;;13.30;1.00;;;;;;5090229;28;20262;-83
2022/11/07 09:49:00;;;;;;;4.17;1.37;;;13.30;1.00;;;;;;5090198;28;20206;-83
2022/11/07 09:51:33;;;;;;;7.73;2.00;;;13.50;1.00;;;;;;5091067;28;20234;-83
2022/11/07 09:54:04;;;;;;;8.40;1.93;;;13.50;1.00;;;;;;5089871;28;20651;-83
2022/11/07 09:56:32;;;;;;;4.87;1.60;;;13.50;99.90;;;;;;5088852;28;20568;-84
2022/11/07 09:59:07;;;;;;;3.37;1.43;;;13.60;99.90;;;;;;5090304;28;20270;-83
2022/11/07 10:01:34;;;;;;;5.03;1.97;;;13.60;1.00;;;;;;5090932;28;20221;-84
2022/11/07 10:04:01;;;;;;;3.77;1.47;;;13.60;1.00;;;;;;5090755;28;20244;-83
2022/11/07 10:06:31;;;;;;;10.50;2.30;;;13.70;99.90;;;;;;5089638;28;20213;-83
2022/11/07 10:09:07;;;;;;;7.17;1.67;;;13.80;58.60;;;;;;5089727;28;20214;-83
2022/11/07 10:11:37;;;;;;;5.43;1.93;;;13.90;1.00;;;;;;5087746;28;20297;-83
2022/11/07 10:14:17;;;;;;;6.17;1.80;;;14.00;1.00;;;;;;5089533;28;20230;-83
2022/11/07 10:16:55;;;;;;;5.93;1.97;;;14.10;99.90;;;;;;5090286;28;20203;-84
2022/11/07 10:19:32;;;;;;;5.23;1.73;;;14.10;99.90;;;;;;5088779;28;20253;-83
2022/11/07 10:22:11;;;;;;;6.20;2.00;;;14.20;1.00;;;;;;5090665;28;20202;-83
2022/11/07 10:24:47;;;;;;;6.40;2.00;;;14.50;1.00;;;;;;5090118;28;20270;-83
2022/11/07 10:27:14;;;;;;;5.17;1.70;;;14.50;1.00;;;;;;5089203;28;20295;-84
2022/11/07 10:29:46;;;;;;;4.53;1.30;;;14.50;1.00;;;;;;5089365;28;20254;-84
2022/11/07 10:32:20;;;;;;;3.83;1.73;;;14.40;99.90;;;;;;5088824;28;20659;-83
2022/11/07 10:34:51;;;;;;;2.93;1.50;;;14.40;99.90;;;;;;5090546;28;20261;-83
2022/11/07 10:37:17;;;;;;;4.43;1.20;;;14.40;99.90;;;;;;5089437;28;20384;-83
2022/11/07 10:39:44;;;;;;;4.43;1.85;;;14.20;1.00;;;;;;5088512;28;20289;-83
2022/11/07 10:42:16;;;;;;;5.43;1.60;;;14.30;73.90;;;;;;5074635;28;20286;-82
2022/11/07 10:44:44;;;;;;;4.40;1.67;;;14.20;1.00;;;;;;5082681;28;20278;-83
2022/11/07 10:47:16;;;;;;;4.73;1.70;;;14.20;1.00;;;;;;5084620;28;20230;-82
2022/11/07 10:49:54;;;;;;;2.63;1.37;;;14.10;99.90;;;;;;5080308;28;20249;-82
2022/11/07 10:52:21;;;;;;;4.20;1.67;;;14.10;1.00;;;;;;5085071;28;20198;-83
2022/11/07 10:54:48;;;;;;;7.47;2.00;;;14.10;58.80;;;;;;5085638;28;20267;-82
2022/11/07 10:57:17;;;;;;;4.73;1.50;;;14.00;1.00;;;;;;5087188;28;20212;-84
2022/11/07 10:59:55;;;;;;;4.03;1.37;;;14.30;1.00;;;;;;5086486;28;20249;-83
2022/11/07 11:02:23;;;;;;;2.43;1.30;;;14.20;1.00;;;;;;5089044;28;20270;-83
2022/11/07 11:04:52;;;;;;;4.53;1.93;;;14.10;99.90;;;;;;5088835;28;20202;-83
2022/11/07 11:07:19;;;;;;;2.83;1.20;;;14.20;1.00;;;;;;5089054;28;20202;-84
2022/11/07 11:09:51;;;;;;;4.90;2.10;;;14.20;1.00;;;;;;5085578;28;20281;-83
2022/11/07 11:12:23;;;;;;;7.00;2.00;;;14.30;1.00;;;;;;5088282;28;20265;-84
2022/11/07 11:15:03;;;;;;;3.97;1.70;;;14.30;1.00;;;;;;5088066;28;20300;-83
2022/11/07 11:17:32;;;;;;;5.53;1.50;;;14.30;1.00;;;;;;5088696;28;20249;-83
2022/11/07 11:19:59;;;;;;;6.67;2.17;;;14.20;1.00;;;;;;5090523;28;20246;-83
2022/11/07 11:22:27;;;;;;;3.00;1.33;;;14.30;1.00;;;;;;5093640;28;20202;-83
2022/11/07 11:25:04;;;;;;;5.47;1.97;;;14.10;1.00;;;;;;5087237;28;20218;-83
2022/11/07 11:27:34;;;;;;;6.17;2.13;;;14.10;1.00;;;;;;5090125;28;20198;-83
2022/11/07 11:30:06;;;;;;;2.57;1.40;;;14.10;1.00;;;;;;5090524;28;20584;-84
2022/11/07 11:32:37;;;;;;;7.80;1.63;;;14.10;1.00;;;;;;5090419;28;20631;-83
2022/11/07 11:35:19;;;;;;;3.10;1.33;;;14.10;1.00;;;;;;5092363;28;20261;-84
2022/11/07 11:37:49;;;;;;;5.37;1.43;;;14.10;1.00;;;;;;5090533;28;20201;-83
2022/11/07 11:40:21;;;;;;;7.07;2.10;;;14.30;99.90;;;;;;5090138;28;20226;-83
2022/11/07 11:42:52;;;;;;;5.00;1.90;;;14.20;39.40;;;;;;5092963;28;20206;-83
2022/11/07 11:45:30;;;;;;;5.73;1.80;;;14.30;4.20;;;;;;5091276;28;20212;-84
2022/11/07 11:48:02;;;;;;;6.03;1.70;;;14.40;1.00;;;;;;5090996;28;20250;-83
2022/11/07 11:50:36;;;;;;;3.70;1.67;;;14.50;1.00;;;;;;5090406;28;20230;-83
2022/11/07 11:53:03;;;;;;;6.53;1.67;;;14.50;99.90;;;;;;5089832;28;20265;-84
2022/11/07 11:55:38;;;;;;;6.80;2.23;;;14.60;1.00;;;;;;5090902;28;20210;-83
2022/11/07 11:58:18;;;;;;;5.63;1.85;;;14.70;99.90;;;;;;5088863;28;20197;-83
2022/11/07 12:00:56;;;;;;;2.90;1.63;;;14.80;99.90;;;;;;5091990;28;20226;-84
2022/11/07 12:03:45;;;;;;;4.22;1.60;;;15.00;99.90;;;;;;5083530;28;20302;-83
2022/11/07 12:06:16;;;;;;;2.67;1.87;;;15.00;99.90;;;;;;5071808;28;20263;-83
2022/11/07 12:08:58;;;;;;;4.87;1.93;;;15.00;1.00;;;;;;5070730;28;20279;-83
2022/11/07 12:11:32;;;;;;;3.72;1.40;;;15.00;1.00;;;;;;5087638;28;20265;-83
2022/11/07 12:14:11;;;;;;;6.83;1.80;;;15.50;99.90;;;;;;5091115;28;20237;-82
2022/11/07 12:16:45;;;;;;;3.23;1.60;;;15.50;1.00;;;;;;5092431;28;20232;-83
2022/11/07 12:19:23;;;;;;;4.82;1.95;;;15.30;1.00;;;;;;5085867;28;20266;-83
2022/11/07 12:21:59;;;;;;;4.27;2.03;;;15.20;1.00;;;;;;5071618;28;20203;-84
2022/11/07 12:24:35;;;;;;;4.53;2.00;;;15.30;1.00;;;;;;5072787;28;20245;-83
2022/11/07 12:27:11;;;;;;;4.37;1.70;;;15.30;1.00;;;;;;5088276;28;20186;-83
2022/11/07 12:30:03;;;;;;;4.25;2.00;;;15.30;99.90;;;;;;5089235;28;20305;-83
2022/11/07 12:32:38;;;;;;;5.78;2.00;;;15.30;1.00;;;;;;5090192;28;20579;-83
2022/11/07 12:35:18;;;;;;;5.35;1.50;;;15.20;1.00;;;;;;5079679;28;20587;-83
2022/11/07 12:37:58;;;;;;;3.28;1.42;;;15.20;1.00;;;;;;5078026;28;20205;-82
2022/11/07 12:40:30;;;;;;;3.93;1.73;;;15.10;1.00;;;;;;5077970;28;20222;-82
2022/11/07 12:43:17;;;;;;;3.60;1.50;;;15.00;1.00;;;;;;5077806;28;20289;-82
2022/11/07 12:45:52;;;;;;;3.55;1.60;;;15.10;1.00;;;;;;5065481;28;20213;-81
2022/11/07 12:48:38;;;;;;;8.67;3.90;;;15.10;1.00;;;;;;5073338;28;20204;-82
2022/11/07 12:51:16;;;;;;;6.57;2.70;;;15.10;99.90;;;;;;5077307;28;20214;-80
2022/11/07 12:53:56;;;;;;;3.75;2.22;;;15.10;1.00;;;;;;5080961;28;20198;-82
2022/11/07 12:56:31;;;;;;;5.70;1.92;;;15.00;1.00;;;;;;5077702;28;20212;-81
2022/11/07 12:59:00;;;;;;;9.65;2.70;;;15.00;1.00;;;;;;5077098;28;20190;-82
2022/11/07 13:01:35;;;;;;;7.43;2.55;;;14.90;1.00;;;;;;5077534;28;20236;-81
2022/11/07 13:04:13;;;;;;;3.87;1.90;;;14.90;1.00;;;;;;5078697;28;20208;-81
2022/11/07 13:06:46;;;;;;;3.90;1.80;;;14.80;99.90;;;;;;5077395;28;20202;-81
2022/11/07 13:09:23;;;;;;;5.30;2.00;;;14.70;99.90;;;;;;5065132;28;20205;-82
2022/11/07 13:11:56;;;;;;;6.22;1.60;;;14.70;99.90;;;;;;5076599;28;20226;-82
2022/11/07 13:14:32;;;;;;;3.47;1.50;;;14.60;1.00;;;;;;5073677;28;20430;-82
2022/11/07 13:17:14;;;;;;;3.58;1.73;;;14.60;1.00;;;;;;5073640;28;20206;-82